Nearby METAR Reports

 

KCIC - Chico Municipal, California, USA
Distance from station: SSW 12mi, 20km
Updated: Sun, 20-Aug-2017 7:35pm PDT
Clear
Clear
 Wind from SSE
Wind: SSE 9 mph , 15 km/h
Temperature: 88°F , 31°C
Heat Index: 89°F , 32°C
Dew Point: 63°F , 17°C
Humidity: 43%
Barometer: 29.79 inHg , 1008.8 hPa
Clouds: Clear
Visibility: 10 miles , 16 km
2017/08/21 02:35 KCIC 210235Z AUTO 16008KT 10SM CLR 31/17 A2979 RMK AO1
KOVE - Oroville, California, USA
Distance from station: SSE 31mi, 50km
Updated: Sun, 20-Aug-2017 6:53pm PDT
Clear
Clear
 Wind from S
Wind: S 13 mph , 20 km/h
Temperature: 90°F , 32°C
Heat Index: 91°F , 33°C
Dew Point: 63°F , 17°C
Humidity: 41%
Barometer: 29.78 inHg , 1008.5 hPa
Clouds: Clear
Visibility: 10 miles , 16 km
2017/08/21 01:53 KOVE 210153Z AUTO 17011KT 10SM CLR 32/17 A2978 RMK AO2 SLP084 T03220172
 
KRBL - Red Bluff, California, USA
Distance from station: WNW 31mi, 50km
Updated: Sun, 20-Aug-2017 6:54pm PDT
Clear
Clear
 Wind from S
Wind: S 12 mph , 19 km/h
Temperature: 90°F , 32°C
Heat Index: 92°F , 33°C
Dew Point: 64°F , 18°C
Humidity: 43%
Barometer: 29.75 inHg , 1007.5 hPa
Clouds: Clear
Visibility: 10 miles , 16 km
2017/08/21 01:54 KRBL 210154Z AUTO 18010KT 10SM CLR 32/18 A2975 RMK AO2 SLP071 T03220178
KRDD - Redding, California, USA
Distance from station: NW 50mi, 80km
Updated: Sun, 20-Aug-2017 6:53pm PDT
Haze, Smoke, Clear
Haze, Smoke, Clear
 Wind from S
Wind: S 14 mph , 22 km/h
Temperature: 95°F , 35°C
Dew Point: 57°F , 14°C
Humidity: 28%
Barometer: 29.72 inHg , 1006.4 hPa
Summary: Haze, Smoke
Clouds: Clear
Visibility: 7 miles , 11 km
2017/08/21 01:53 KRDD 210153Z 17012KT 7SM HZ FU CLR 35/14 A2972 RMK AO2 SLP057 T03500139
 
KMYV - Marysville, California, USA
Distance from station: S 59mi, 95km
Updated: Sun, 20-Aug-2017 6:53pm PDT
Clear
Clear
 Wind from SSW
Wind: SSW 9 mph , 15 km/h
Temperature: 90°F , 32°C
Dew Point: 59°F , 15°C
Humidity: 36%
Barometer: 29.77 inHg , 1008.1 hPa
Clouds: Clear
Visibility: 10 miles , 16 km
2017/08/21 01:53 KMYV 210153Z AUTO 20008KT 10SM CLR 32/15 A2977 RMK AO2 SLP084 T03170150
KBAB - Beale Afb/Marysv, California, USA
Distance from station: SSE 59mi, 96km
Updated: Sun, 20-Aug-2017 1:58pm PDT
NOT Current
Clear
Clear
 Wind from calm
Wind: Calm
Temperature: 86°F , 30°C
Heat Index: 87°F , 31°C
Dew Point: 63°F , 17°C
Humidity: 46%
Barometer: 29.80 inHg , 1009.1 hPa
Clouds: Clear
Visibility: 10 miles , 16 km
2017/08/20 20:58 KBAB 202058Z AUTO 00000KT 10SM CLR 30/17 A2980 RMK AO2 SLP093 T03010166 57011 $
 
KGOO - Grass Valley, California, USA
Distance from station: SE 63mi, 102km
Updated: Fri, 05-May-2017 6:55am PDT
NOT Current
Clear
Clear
 Wind from SE
Wind: SE 3 mph , 6 km/h
Temperature: 59°F , 15°C
Dew Point: 46°F , 8°C
Humidity: 63%
Barometer: 29.93 inHg , 1013.5 hPa
Clouds: Clear
Visibility: 10 miles , 16 km
2017/05/05 13:55 KGOO 051355Z AUTO 14003KT 10SM CLR 15/08 A2993 RMK AO1
KBLU - Emigrant Gap, California, USA
Distance from station: SE 71mi, 115km
Updated: Sun, 20-Aug-2017 6:52pm PDT
Clear
Clear
 Wind from SSE
Wind: SSE 5 mph , 7 km/h
Temperature: 70°F , 21°C
Dew Point: 54°F , 12°C
Humidity: 57%
Barometer: 30.13 inHg , 1020.3 hPa
Clouds: Clear
Visibility: 10 miles , 16 km
2017/08/21 01:52 KBLU 210152Z AUTO 16004KT 10SM CLR 21/12 A3013 RMK AO2 SLP105 T02110122 TSNO $
 
KLHM - Lincoln, California, USA
Distance from station: SSE 74mi, 119km
Updated: Sun, 20-Aug-2017 7:35pm PDT
Clear
Clear
 Wind from SSW
Wind: SSW 9 mph , 15 km/h
Temperature: 86°F , 30°C
Dew Point: 52°F , 11°C
Humidity: 31%
Barometer: 29.77 inHg , 1008.1 hPa
Clouds: Clear
Visibility: 10 miles , 16 km
2017/08/21 02:35 KLHM 210235Z AUTO 20008KT 10SM CLR 30/11 A2977 RMK AO1
KAUN - Auburn Muni, California, USA
Distance from station: SSE 77mi, 123km
Updated: Sun, 20-Aug-2017 7:35pm PDT
Clear
Clear
 Wind from SW
Wind: SW 6 mph , 9 km/h
Temperature: 84°F , 29°C
Heat Index: 90°F , 32°C
Dew Point: 73°F , 23°C
Humidity: 70%
Barometer: 29.86 inHg , 1011.2 hPa
Clouds: Clear
Visibility: 10 miles , 16 km
2017/08/21 02:35 KAUN 210235Z AUTO 23005KT 10SM CLR 29/23 A2986 RMK AO1
 
KO54 - Weaverville, California, USA
Distance from station: NW 84mi, 135km
Updated: Fri, 16-Jun-2017 5:55pm PDT
NOT Current

 Wind from SW
Wind: SW 12 mph , 19 km/h, Gust: 21 mph , 33 km/h
Temperature: 81°F , 27°C
Dew Point: 54°F , 12°C
Humidity: 39%
Barometer: 30.03 inHg , 1016.9 hPa
Visibility: 10 miles , 16 km
2017/06/17 00:55 KO54 170055Z AUTO 23010G18KT 190V250 10SM 27/12 A3003 RMK AO1
KSMF - Sacramento/Metro, California, USA
Distance from station: S 86mi, 139km
Updated: Sun, 20-Aug-2017 6:53pm PDT
Few Clouds
Few Clouds
 Wind from S
Wind: S 14 mph , 22 km/h
Temperature: 84°F , 29°C
Heat Index: 85°F , 29°C
Dew Point: 63°F , 17°C
Humidity: 48%
Barometer: 29.76 inHg , 1007.8 hPa
Clouds: Few Clouds
Visibility: 10 miles , 16 km
Cloud details: Few Clouds 20000 ft
2017/08/21 01:53 KSMF 210153Z 19012KT 10SM FEW200 29/17 A2976 RMK AO2 SLP075 T02890167
 
KMCC - Mcclellan Afb, California, USA
Distance from station: SSE 90mi, 145km
Updated: Sun, 20-Aug-2017 7:35pm PDT
Clear
Clear
 Wind from S
Wind: S 10 mph , 17 km/h
Temperature: 81°F , 27°C
Heat Index: 81°F , 27°C
Dew Point: 57°F , 14°C
Humidity: 45%
Barometer: 29.80 inHg , 1009.1 hPa
Clouds: Clear
Visibility: 10 miles , 16 km
2017/08/21 02:35 KMCC 210235Z AUTO 17009KT 10SM CLR 27/14 A2980 RMK AO2
KTRK - Truckee Tahoe, California, USA
Distance from station: ESE 96mi, 155km
Updated: Sun, 20-Aug-2017 7:35pm PDT
Partly cloudy
Partly cloudy
 Wind from W
Wind: W 6 mph , 9 km/h
Temperature: 70°F , 21°C
Dew Point: 52°F , 11°C
Humidity: 53%
Barometer: 30.16 inHg , 1021.3 hPa
Clouds: Partly cloudy
Visibility: 10 miles , 16 km
Cloud details: Partly cloudy 12000 ft
2017/08/21 02:35 KTRK 210235Z AUTO 28005KT 10SM SCT120 21/11 A3016 RMK AO2
 
KUKI - Ukiah, California, USA
Distance from station: SW 97mi, 156km
Updated: Sun, 20-Aug-2017 6:56pm PDT
Clear
Clear
 Wind from SSE
Wind: SSE 6 mph , 9 km/h
Temperature: 82°F , 28°C
Heat Index: 82°F , 28°C
Dew Point: 59°F , 15°C
Humidity: 45%
Barometer: 29.83 inHg , 1010.2 hPa
Clouds: Clear
Visibility: 10 miles , 16 km
2017/08/21 01:56 KUKI 210156Z AUTO 16005KT 10SM CLR 28/15 A2983 RMK AO2 SLP094 T02780150
KEDU - Davis, California, USA
Distance from station: S 97mi, 157km
Updated: Sun, 20-Aug-2017 8:20am PDT
NOT Current
Clear
Clear
 Wind from SW
Wind: SW 3 mph , 6 km/h
Temperature: 64°F , 18°C
Dew Point: 59°F , 15°C
Humidity: 83%
Barometer: 29.86 inHg , 1011.2 hPa
Clouds: Clear
Visibility: 10 miles , 16 km
2017/08/20 15:20 KEDU 201520Z AUTO 23003KT 10SM CLR 18/15 A2986 RMK AO1
 
KMHR - Mather Field, California, USA
Distance from station: SSE 100mi, 161km
Updated: Sun, 20-Aug-2017 6:55pm PDT
Partly cloudy
Partly cloudy
 Wind from S
Wind: S 10 mph , 17 km/h
Temperature: 82°F , 28°C
Heat Index: 82°F , 28°C
Dew Point: 59°F , 15°C
Humidity: 45%
Barometer: 29.79 inHg , 1008.8 hPa
Clouds: Partly cloudy
Visibility: 10 miles , 16 km
Cloud details: Partly cloudy 15000 ft
2017/08/21 01:55 KMHR 210155Z 19009KT 10SM SCT150 28/15 A2979
KMHS - Mount Shasta, California, USA
Distance from station: NNW 100mi, 161km
Updated: Sun, 20-Aug-2017 6:56pm PDT
Clear
Clear
 Wind from calm
Wind: Calm
Temperature: 81°F , 27°C
Dew Point: 46°F , 8°C
Humidity: 30%
Barometer: 29.97 inHg , 1014.9 hPa
Clouds: Clear
Visibility: 9 miles , 14 km
2017/08/21 01:56 KMHS 210156Z AUTO 00000KT 9SM CLR 27/08 A2997 RMK AO2 SLP137 T02670078
 
KRTS - Reno/Stead, Nevada, USA
Distance from station: E 100mi, 161km
Updated: Sun, 20-Aug-2017 7:35pm PDT
Clear
Clear
 Wind from W
Wind: W 10 mph , 17 km/h
Temperature: 77°F , 25°C
Dew Point: 41°F , 5°C
Humidity: 28%
Barometer: 30.07 inHg , 1018.3 hPa
Clouds: Clear
Visibility: 10 miles , 16 km
2017/08/21 02:35 KRTS 210235Z AUTO 28009KT 10SM CLR 25/05 A3007 RMK AO2
KSAC - Sacramento, California, USA
Distance from station: S 100mi, 162km
Updated: Sun, 20-Aug-2017 6:53pm PDT
Clear
Clear
 Wind from SSW
Wind: SSW 14 mph , 22 km/h, Gust: 20 mph , 31 km/h
Temperature: 79°F , 26°C
Dew Point: 61°F , 16°C
Humidity: 54%
Barometer: 29.77 inHg , 1008.1 hPa
Clouds: Clear
Visibility: 10 miles , 16 km
2017/08/21 01:53 KSAC 210153Z 20012G17KT 10SM CLR 26/16 A2977 RMK AO2 SLP082 T02610161